Fortune Wing — VRHW2 — position and weather

sailwx.info

Track history (hours):
 
Tides and Currents Weather Stations Pressure Air Temp Water Temp Dewpoint Dewpoint Depression Visibility Wind Speed Wind Dir Waves Ship Positions

Fortune Wing

Last reported at 2015-Aug-29 14:08 UTC. Time now 2015-Aug-30 22:34 UTC.
Position N 28°07' W 123°06'.

Length 190 m; draft 12 m.

Type: Cargo ship. MMSI: 477389500.

Date/timePositionNaut miles runAvg speedWind from/ knotsBaromVisibWave heightAir tempDewpointWater temp
2015-Aug-29 14:08N 28°07' W 123°06'812.8
2015-Aug-29 13:33N 28°03' W 122°58'1212.5
2015-Aug-29 12:33N 27°56' W 122°47'2512.2
2015-Aug-29 10:30N 27°42' W 122°23'1212.3
2015-Aug-29 09:33N 27°36' W 122°12'1212.1
2015-Aug-29 08:33N 27°29' W 122°01'2512.2
2015-Aug-29 06:31N 27°15' W 121°37'5212.1
2015-Aug-29 02:11N 26°47' W 120°48'911.9
2015-Aug-29 01:25N 26°42' W 120°40'1111.9
2015-Aug-29 00:28N 26°35' W 120°29'1112.2
2015-Aug-28 23:33N 26°29' W 120°19'1212.3
2015-Aug-28 22:32N 26°22' W 120°07'6212.3
2015-Aug-28 17:32N 25°49' W 119°10'2512.4
2015-Aug-28 15:30N 25°34' W 118°47'22712.4
2015-Aug-27 21:11N 23°34' W 115°15'  
Track history (hours):
 
Tides and Currents Weather Stations Pressure Air Temp Water Temp Dewpoint Dewpoint Depression Visibility Wind Speed Wind Dir Waves Ship Positions

Fortune Wing

Last reported at 2015-Aug-29 14:08 UTC. Time now 2015-Aug-30 22:34 UTC.
Position N 28°07' W 123°06'.

Length 190 m; draft 12 m.

Type: Cargo ship. MMSI: 477389500.

Date/timePositionNaut miles runAvg speedWind from/ knotsBaromVisibWave heightAir tempDewpointWater temp
2015-Aug-29 14:08N 28°07' W 123°06'812.8
2015-Aug-29 13:33N 28°03' W 122°58'1212.5
2015-Aug-29 12:33N 27°56' W 122°47'2512.2
2015-Aug-29 10:30N 27°42' W 122°23'1212.3
2015-Aug-29 09:33N 27°36' W 122°12'1212.1
2015-Aug-29 08:33N 27°29' W 122°01'2512.2
2015-Aug-29 06:31N 27°15' W 121°37'5212.1
2015-Aug-29 02:11N 26°47' W 120°48'911.9
2015-Aug-29 01:25N 26°42' W 120°40'1111.9
2015-Aug-29 00:28N 26°35' W 120°29'1112.2
2015-Aug-28 23:33N 26°29' W 120°19'1212.3
2015-Aug-28 22:32N 26°22' W 120°07'6212.3
2015-Aug-28 17:32N 25°49' W 119°10'2512.4
2015-Aug-28 15:30N 25°34' W 118°47'22712.4
2015-Aug-27 21:11N 23°34' W 115°15'  

Dump ship's entire track history